EST,Max TemperatureF,Mean TemperatureF,Min TemperatureF,Max Dew PointF,MeanDew PointF,Min DewpointF,Max Humidity, Mean Humidity, Min Humidity, Max Sea Level PressureIn, Mean Sea Level PressureIn, Min Sea Level PressureIn, Max VisibilityMiles, Mean VisibilityMiles, Min VisibilityMiles, Max Wind SpeedMPH, Mean Wind SpeedMPH, Max Gust SpeedMPH,PrecipitationIn, CloudCover, Events, WindDirDegrees
2012-11-1,59,52,44,41,38,36,76,61,44,29.80,29.75,29.70,10,10,10,15,7,21,0.00,,,272
2012-11-2,60,52,44,41,36,32,76,57,34,29.93,29.84,29.79,10,10,10,13,6,18,0.00,,,289
2012-11-3,53,46,39,39,34,32,87,61,44,30.08,30.02,29.93,10,10,10,12,4,20,0.00,,,338
2012-11-4,51,45,39,45,41,36,87,75,62,30.11,30.04,29.97,10,10,7,12,4,,0.00,,Rain,25
2012-11-5,51,48,46,43,36,34,76,63,50,30.11,30.04,29.95,10,10,10,15,11,22,0.00,,Rain,13
2012-11-6,53,50,48,50,42,34,88,68,58,30.10,29.98,29.75,10,9,5,17,11,25,0.00,,Rain,40
2012-11-7,53,48,42,50,42,36,93,82,71,29.86,29.78,29.73,10,9,3,21,12,28,0.00,,Rain,346
2012-11-8,55,48,42,37,33,27,81,58,33,30.04,29.93,29.85,10,10,10,13,8,22,0.00,,,314
2012-11-9,55,48,41,39,35,27,93,64,44,30.27,30.19,30.04,10,10,5,14,6,18,0.00,,,334
2012-11-10,64,52,39,45,37,32,93,61,32,30.42,30.36,30.26,10,10,7,8,1,,0.00,,,164
2012-11-11,69,56,44,54,49,43,94,78,46,30.52,30.47,30.42,10,8,0,9,1,,0.00,,Fog,162
2012-11-12,73,63,53,61,57,50,94,77,53,30.48,30.36,30.24,10,9,0,10,3,16,0.00,,Fog,159
2012-11-13,64,56,48,61,52,45,94,88,82,30.35,30.27,30.19,10,8,3,22,8,33,0.00,,Rain,26
2012-11-14,53,50,48,46,44,37,87,77,62,30.40,30.36,30.32,10,9,3,22,16,30,0.00,,Rain,20
2012-11-15,59,54,50,50,47,43,88,78,67,30.31,30.24,30.19,10,10,7,17,12,25,0.00,,Rain,28
2012-11-16,53,50,48,48,44,39,88,78,66,30.33,30.25,30.18,10,10,7,17,12,24,0.00,,Rain,14
2012-11-17,59,54,50,50,46,41,82,74,63,30.42,30.38,30.33,10,10,10,18,14,29,0.00,,,34
2012-11-18,60,58,57,54,52,50,82,78,72,30.37,30.31,30.22,10,8,5,23,19,34,0.00,,Rain,44
2012-11-19,59,56,53,54,53,50,94,88,82,30.22,30.14,30.06,7,5,2,25,20,40,0.00,,Rain,15
2012-11-20,55,53,51,52,48,45,94,83,76,30.09,30.06,30.03,10,8,2,18,15,26,0.00,,,13
2012-11-21,57,54,51,50,47,43,88,79,67,30.11,30.07,30.03,10,10,10,22,13,28,0.00,,,13
2012-11-22,55,53,51,50,48,45,88,82,72,30.13,30.10,30.05,10,8,5,23,17,30,0.00,,,11
2012-11-23,62,55,48,50,46,43,94,78,52,30.11,29.99,29.81,10,9,4,13,7,,0.00,,,283
2012-11-24,53,47,41,43,30,19,67,52,39,30.07,29.93,29.80,10,10,10,18,9,31,0.00,,,336
2012-11-25,48,42,35,32,26,21,66,53,34,30.16,30.09,30.05,10,10,10,13,8,17,0.00,,,282
2012-11-26,59,50,42,41,34,25,93,62,31,30.24,30.17,30.09,10,10,10,8,4,,0.00,,,253
2012-11-27,60,50,41,46,42,34,93,72,36,30.22,30.16,30.09,10,10,7,12,3,,0.00,,Rain,258
2012-11-28,46,40,33,41,35,30,93,74,53,30.38,30.27,30.17,10,10,10,16,10,24,0.00,,,356
2012-11-29,51,42,32,37,33,30,100,75,44,30.48,30.42,30.36,10,10,5,6,1,,0.00,,,21
2012-11-30,57,45,33,43,36,32,100,77,41,30.44,30.38,30.34,10,8,0,5,0,,0.00,,Fog,103